Time;durP1;ratioP1;P1;durP2;ratioP2;P2;SDS_P1;SDS_P2;PMS_P1;PMS_P2;Temp;Humidity;BMP_temperature;BMP_pressure;BME280_temperature;BME280_humidity;BME280_pressure;Samples;Min_cycle;Max_cycle;Signal;HPM_P1;HPM_P2
2022/09/12 00:00:26;;;;;;;4.70;3.88;;;16.40;99.90;;;;;;5076360;28;20467;-68
2022/09/12 00:02:55;;;;;;;5.68;4.20;;;16.40;99.90;;;;;;5073551;28;20490;-68
2022/09/12 00:05:21;;;;;;;4.47;3.78;;;16.30;99.90;;;;;;5073577;28;20411;-67
2022/09/12 00:07:47;;;;;;;5.82;4.03;;;16.40;99.90;;;;;;5073100;28;20399;-68
2022/09/12 00:10:13;;;;;;;5.38;4.28;;;16.30;99.90;;;;;;5072690;28;20728;-68
2022/09/12 00:12:38;;;;;;;5.38;4.22;;;16.30;99.90;;;;;;5072713;28;20391;-68
2022/09/12 00:15:05;;;;;;;4.90;4.40;;;16.30;99.90;;;;;;5072710;28;20544;-68
2022/09/12 00:17:33;;;;;;;4.72;4.20;;;16.30;99.90;;;;;;5072113;28;20460;-68
2022/09/12 00:19:59;;;;;;;6.00;4.60;;;16.30;99.90;;;;;;5072593;28;20438;-68
2022/09/12 00:22:25;;;;;;;5.18;4.10;;;16.20;99.90;;;;;;5072519;28;20449;-68
2022/09/12 00:24:50;;;;;;;5.90;4.20;;;16.20;99.90;;;;;;5070634;28;20395;-68
2022/09/12 00:27:16;;;;;;;6.05;4.50;;;16.20;99.90;;;;;;5072574;28;20477;-68
2022/09/12 00:29:42;;;;;;;6.03;4.27;;;16.10;99.90;;;;;;5072769;28;20426;-68
2022/09/12 00:32:07;;;;;;;4.87;3.93;;;16.10;99.90;;;;;;5074353;28;20384;-68
2022/09/12 00:34:35;;;;;;;6.87;4.07;;;16.10;99.90;;;;;;5072989;28;20388;-68
2022/09/12 00:37:00;;;;;;;6.07;4.43;;;16.10;99.90;;;;;;5073678;28;20395;-68
2022/09/12 00:39:26;;;;;;;5.33;4.43;;;16.10;99.90;;;;;;5073687;28;20644;-68
2022/09/12 00:41:55;;;;;;;4.55;4.00;;;16.10;99.90;;;;;;5073366;28;20408;-68
2022/09/12 00:44:20;;;;;;;4.82;4.10;;;16.00;99.90;;;;;;5073839;28;20875;-68
2022/09/12 00:46:52;;;;;;;5.27;4.50;;;16.00;99.90;;;;;;5073573;28;20396;-68
2022/09/12 00:49:53;;;;;;;5.90;4.60;;;16.00;99.90;;;;;;5074248;28;20407;-68
2022/09/12 00:52:21;;;;;;;5.38;4.30;;;16.00;99.90;;;;;;5090917;28;20387;-67
2022/09/12 00:55:03;;;;;;;6.60;4.63;;;16.00;99.90;;;;;;5074416;28;20502;-67
2022/09/12 00:57:35;;;;;;;5.55;4.30;;;16.00;99.90;;;;;;5075095;28;20399;-68
2022/09/12 01:00:11;;;;;;;5.32;4.13;;;15.90;99.90;;;;;;5074035;28;20383;-67
2022/09/12 01:02:36;;;;;;;5.60;4.00;;;15.90;99.90;;;;;;5074556;28;20477;-68
2022/09/12 01:05:02;;;;;;;6.68;4.32;;;15.90;99.90;;;;;;5074290;28;20419;-68
2022/09/12 01:07:28;;;;;;;4.97;4.38;;;15.80;99.90;;;;;;5075492;28;20453;-68
2022/09/12 01:09:54;;;;;;;5.13;4.07;;;15.80;99.90;;;;;;5074497;28;20395;-68
2022/09/12 01:12:20;;;;;;;6.00;3.93;;;15.80;99.90;;;;;;5071016;28;20396;-68
2022/09/12 01:14:45;;;;;;;5.22;3.88;;;15.80;99.90;;;;;;5071219;28;20388;-68
2022/09/12 01:17:13;;;;;;;5.63;4.00;;;15.70;99.90;;;;;;5070723;28;20701;-68
2022/09/12 01:19:51;;;;;;;5.97;3.88;;;15.70;99.90;;;;;;5068851;28;20909;-68
2022/09/12 01:22:49;;;;;;;5.13;3.75;;;15.70;99.90;;;;;;5070988;28;20800;-69
2022/09/12 01:25:36;;;;;;;6.90;4.03;;;15.70;99.90;;;;;;5072941;28;20434;-68
2022/09/12 01:28:24;;;;;;;6.13;3.85;;;15.70;99.90;;;;;;5070509;28;20501;-68
2022/09/12 01:31:12;;;;;;;5.03;4.10;;;15.70;99.90;;;;;;5072041;28;20767;-68
2022/09/12 01:33:40;;;;;;;4.32;3.63;;;15.60;99.90;;;;;;5073684;28;20403;-68
2022/09/12 01:36:24;;;;;;;4.47;3.60;;;15.60;99.90;;;;;;5073819;28;20691;-68
2022/09/12 01:39:03;;;;;;;5.07;4.00;;;15.50;99.90;;;;;;5073880;28;20403;-68
2022/09/12 01:41:53;;;;;;;4.53;3.70;;;15.50;99.90;;;;;;5073497;28;20407;-68
2022/09/12 01:44:32;;;;;;;5.65;4.05;;;15.50;99.90;;;;;;5072856;28;20796;-68
2022/09/12 01:47:23;;;;;;;6.45;4.00;;;15.40;99.90;;;;;;5075180;28;20387;-69
2022/09/12 01:50:05;;;;;;;4.85;3.90;;;15.40;99.90;;;;;;5074752;28;20696;-68
2022/09/12 01:52:31;;;;;;;4.73;3.70;;;15.30;99.90;;;;;;5072271;28;20399;-68
2022/09/12 01:54:59;;;;;;;6.53;3.93;;;15.40;99.90;;;;;;5073333;28;20396;-68
2022/09/12 01:57:40;;;;;;;4.30;3.45;;;15.40;99.90;;;;;;5074982;28;20506;-69
2022/09/12 02:00:09;;;;;;;4.40;3.75;;;15.40;99.90;;;;;;5073525;28;20398;-68
2022/09/12 02:03:01;;;;;;;4.13;3.58;;;15.40;99.90;;;;;;5072727;28;20525;-68
2022/09/12 02:05:45;;;;;;;4.47;3.70;;;15.30;99.90;;;;;;5073088;28;20415;-68
2022/09/12 02:08:19;;;;;;;5.00;3.57;;;15.30;99.90;;;;;;5074198;28;20421;-68
2022/09/12 02:10:54;;;;;;;5.30;3.63;;;15.30;99.90;;;;;;5072298;28;20392;-68
2022/09/12 02:13:52;;;;;;;5.97;3.72;;;15.30;99.90;;;;;;5073586;28;20478;-69
2022/09/12 02:16:19;;;;;;;4.35;3.38;;;15.30;99.90;;;;;;5073446;28;20388;-68
2022/09/12 02:18:51;;;;;;;4.10;3.70;;;15.30;99.90;;;;;;5072728;28;20675;-68
2022/09/12 02:21:20;;;;;;;4.20;3.80;;;15.20;99.90;;;;;;5070863;28;20486;-68
2022/09/12 02:23:49;;;;;;;4.95;3.75;;;15.20;99.90;;;;;;5070356;28;20799;-69
2022/09/12 02:26:23;;;;;;;4.28;3.58;;;15.20;99.90;;;;;;5070453;28;20388;-68
2022/09/12 02:28:49;;;;;;;4.50;3.33;;;15.20;99.90;;;;;;5070563;28;20491;-68
2022/09/12 02:31:44;;;;;;;4.72;3.25;;;15.10;99.90;;;;;;5072203;28;20401;-68
2022/09/12 02:34:26;;;;;;;4.82;3.80;;;15.10;99.90;;;;;;5072601;28;20399;-68
2022/09/12 02:37:21;;;;;;;3.88;3.28;;;15.10;99.90;;;;;;5088195;28;20473;-68
2022/09/12 02:39:47;;;;;;;3.40;3.10;;;15.10;99.90;;;;;;5069675;28;20659;-68
2022/09/12 02:42:13;;;;;;;3.92;3.40;;;15.10;99.90;;;;;;5071989;28;20415;-69
2022/09/12 02:44:39;;;;;;;4.57;3.40;;;15.00;99.90;;;;;;5071344;28;20803;-68
2022/09/12 02:47:22;;;;;;;3.80;3.05;;;15.00;99.90;;;;;;5070912;28;20876;-69
2022/09/12 02:49:48;;;;;;;3.88;3.08;;;15.00;99.90;;;;;;5070232;28;20380;-69
2022/09/12 02:52:15;;;;;;;3.33;3.00;;;15.00;99.90;;;;;;5071061;28;20467;-68
2022/09/12 02:54:43;;;;;;;3.38;3.08;;;15.00;99.90;;;;;;5087695;28;20524;-68
2022/09/12 02:57:22;;;;;;;4.07;3.08;;;15.00;99.90;;;;;;5071981;28;20388;-69
2022/09/12 02:59:52;;;;;;;3.45;3.00;;;14.90;99.90;;;;;;5085830;28;20379;-68
2022/09/12 03:02:41;;;;;;;3.60;3.22;;;14.90;99.90;;;;;;5069756;28;20502;-69
2022/09/12 03:05:35;;;;;;;4.03;2.83;;;14.80;99.90;;;;;;5072921;28;20415;-69
2022/09/12 03:08:13;;;;;;;3.25;2.95;;;14.80;99.90;;;;;;5070616;28;20387;-68
2022/09/12 03:10:47;;;;;;;2.88;2.55;;;14.80;99.90;;;;;;5072601;28;20372;-68
2022/09/12 03:13:45;;;;;;;4.00;2.65;;;14.80;99.90;;;;;;5070752;28;20467;-69
2022/09/12 03:16:34;;;;;;;4.10;3.17;;;14.80;99.90;;;;;;5071206;28;20384;-68
2022/09/12 03:18:59;;;;;;;3.28;2.97;;;14.80;99.90;;;;;;5069839;28;20423;-68
2022/09/12 03:21:49;;;;;;;3.95;3.22;;;14.80;99.90;;;;;;5066976;28;20482;-69
2022/09/12 03:24:26;;;;;;;3.00;2.70;;;14.80;99.90;;;;;;5068719;28;20441;-68
2022/09/12 03:27:08;;;;;;;4.32;2.70;;;14.70;99.90;;;;;;5086778;28;20395;-68
2022/09/12 03:29:36;;;;;;;3.28;2.97;;;14.70;99.90;;;;;;5071216;28;20384;-68
2022/09/12 03:32:02;;;;;;;3.95;3.10;;;14.60;99.90;;;;;;5069933;28;20786;-68
2022/09/12 03:34:28;;;;;;;3.20;2.67;;;14.60;99.90;;;;;;5070910;28;20384;-68
2022/09/12 03:36:54;;;;;;;3.07;2.77;;;14.60;99.90;;;;;;5070355;28;20388;-68
2022/09/12 03:39:23;;;;;;;2.90;2.70;;;14.60;99.90;;;;;;5072792;28;20395;-68
2022/09/12 03:42:07;;;;;;;3.80;2.80;;;14.60;99.90;;;;;;5072289;28;20403;-68
2022/09/12 03:44:33;;;;;;;2.85;2.65;;;14.60;99.90;;;;;;5072129;28;20384;-68
2022/09/12 03:46:59;;;;;;;3.10;2.67;;;14.60;99.90;;;;;;5073733;28;20384;-68
2022/09/12 03:49:25;;;;;;;3.40;2.80;;;14.60;99.90;;;;;;5089513;28;20799;-68
2022/09/12 03:51:51;;;;;;;3.28;2.85;;;14.60;99.90;;;;;;5071303;28;20734;-68
2022/09/12 03:54:17;;;;;;;3.20;2.90;;;14.60;99.90;;;;;;5068746;28;20396;-68
2022/09/12 03:56:43;;;;;;;2.97;2.70;;;14.60;99.90;;;;;;5070973;28;20375;-68
2022/09/12 03:59:09;;;;;;;3.00;2.70;;;14.50;99.90;;;;;;5070543;28;20400;-68
2022/09/12 04:01:36;;;;;;;3.58;3.00;;;14.50;99.90;;;;;;5068840;28;20379;-68
2022/09/12 04:04:02;;;;;;;3.38;3.08;;;14.50;99.90;;;;;;5069087;28;20403;-68
2022/09/12 04:06:28;;;;;;;3.25;2.83;;;14.40;99.90;;;;;;5068271;28;20419;-68
2022/09/12 04:08:54;;;;;;;3.50;3.20;;;14.40;99.90;;;;;;5068301;28;20411;-68
2022/09/12 04:11:21;;;;;;;2.97;2.60;;;14.40;99.90;;;;;;5067227;28;20388;-68
2022/09/12 04:13:47;;;;;;;3.47;3.17;;;14.40;99.90;;;;;;5068230;28;20380;-68
2022/09/12 04:16:15;;;;;;;3.30;2.90;;;14.40;99.90;;;;;;5066919;28;20727;-68
2022/09/12 04:18:41;;;;;;;4.00;2.90;;;14.40;99.90;;;;;;5067931;28;20388;-68
2022/09/12 04:21:10;;;;;;;5.00;3.03;;;14.40;99.90;;;;;;5070287;28;20459;-68
2022/09/12 04:23:35;;;;;;;3.53;3.22;;;14.30;99.90;;;;;;5070073;28;20740;-68
2022/09/12 04:26:05;;;;;;;3.40;3.10;;;14.30;99.90;;;;;;5069813;28;20427;-68
2022/09/12 04:28:32;;;;;;;3.20;2.90;;;14.30;99.90;;;;;;5071680;28;20384;-68
2022/09/12 04:31:05;;;;;;;3.85;3.10;;;14.30;99.90;;;;;;5070100;28;20462;-68
2022/09/12 04:33:31;;;;;;;5.37;3.50;;;14.30;99.90;;;;;;5070897;28;20392;-68
2022/09/12 04:36:06;;;;;;;4.30;3.57;;;14.30;99.90;;;;;;5070298;28;20468;-68
2022/09/12 04:38:34;;;;;;;4.03;3.63;;;14.30;99.90;;;;;;5070214;28;20491;-68
2022/09/12 04:41:00;;;;;;;3.85;3.53;;;14.30;99.90;;;;;;5068643;28;20660;-68
2022/09/12 04:43:26;;;;;;;4.63;3.70;;;14.30;99.90;;;;;;5084829;28;20846;-68
2022/09/12 04:45:53;;;;;;;4.78;4.13;;;14.40;99.90;;;;;;5067618;28;20384;-68
2022/09/12 04:48:18;;;;;;;5.32;3.80;;;14.40;99.90;;;;;;5068310;28;20444;-68
2022/09/12 04:50:44;;;;;;;5.93;3.87;;;14.40;99.90;;;;;;5067233;28;20384;-68
2022/09/12 04:53:10;;;;;;;4.57;3.73;;;14.40;99.90;;;;;;5065440;28;20403;-69
2022/09/12 04:55:36;;;;;;;4.68;3.63;;;14.30;99.90;;;;;;5082878;28;20380;-68
2022/09/12 04:58:02;;;;;;;6.57;4.43;;;14.30;99.90;;;;;;5065075;28;20396;-68
2022/09/12 05:00:28;;;;;;;5.40;4.25;;;14.30;99.90;;;;;;5062828;28;20398;-68
2022/09/12 05:02:53;;;;;;;6.68;4.72;;;14.30;99.90;;;;;;5062324;28;20426;-68
2022/09/12 05:05:20;;;;;;;4.90;4.38;;;14.30;99.90;;;;;;5062361;28;20889;-68
2022/09/12 05:07:46;;;;;;;9.20;5.70;;;14.30;99.90;;;;;;5077548;28;20451;-68
2022/09/12 05:10:12;;;;;;;7.28;5.45;;;14.20;99.90;;;;;;5074876;28;20815;-68
2022/09/12 05:12:38;;;;;;;7.50;5.10;;;14.20;99.90;;;;;;5060031;28;20418;-68
2022/09/12 05:15:04;;;;;;;6.22;5.07;;;14.20;99.90;;;;;;5062607;28;20834;-68
2022/09/12 05:17:30;;;;;;;5.13;4.53;;;14.20;99.90;;;;;;5063630;28;20787;-68
2022/09/12 05:19:56;;;;;;;5.47;4.80;;;14.30;99.90;;;;;;5064258;28;20461;-68
2022/09/12 05:22:22;;;;;;;7.50;5.17;;;14.30;99.90;;;;;;5065718;28;20484;-68
2022/09/12 05:24:48;;;;;;;5.65;5.05;;;14.20;99.90;;;;;;5083690;28;20457;-68
2022/09/12 05:27:14;;;;;;;6.17;4.87;;;14.10;99.90;;;;;;5068766;28;20388;-68
2022/09/12 05:29:41;;;;;;;5.60;4.83;;;14.20;99.90;;;;;;5066561;28;20878;-68
2022/09/12 05:32:08;;;;;;;6.18;5.57;;;14.20;99.90;;;;;;5068359;28;20391;-68
2022/09/12 05:34:34;;;;;;;6.55;5.28;;;14.20;99.90;;;;;;5063396;28;20456;-67
2022/09/12 05:37:00;;;;;;;6.07;5.07;;;14.10;99.90;;;;;;5080920;28;20586;-68
2022/09/12 05:39:26;;;;;;;6.03;5.43;;;14.10;99.90;;;;;;5065226;28;20392;-67
2022/09/12 05:41:52;;;;;;;6.35;5.20;;;14.10;99.90;;;;;;5083345;28;20399;-68
2022/09/12 05:44:21;;;;;;;6.05;5.43;;;14.10;99.90;;;;;;5065048;28;20455;-68
2022/09/12 05:46:50;;;;;;;5.90;5.30;;;14.10;99.90;;;;;;5062339;28;20723;-68
2022/09/12 05:49:16;;;;;;;5.70;5.10;;;14.20;99.90;;;;;;5062687;28;20694;-67
2022/09/12 05:51:44;;;;;;;5.82;5.20;;;14.20;99.90;;;;;;5060826;28;20457;-67
2022/09/12 05:54:13;;;;;;;6.38;5.70;;;14.20;99.90;;;;;;5060720;28;20404;-67
2022/09/12 05:56:40;;;;;;;9.20;7.40;;;14.20;99.90;;;;;;5058167;28;20619;-67
2022/09/12 05:59:16;;;;;;;6.68;6.07;;;14.10;99.90;;;;;;5058178;28;20833;-67
2022/09/12 06:01:43;;;;;;;6.85;6.20;;;14.10;99.90;;;;;;5058662;28;20471;-67
2022/09/12 06:04:10;;;;;;;6.03;5.53;;;14.10;99.90;;;;;;5060116;28;20726;-67
2022/09/12 06:06:40;;;;;;;6.70;6.07;;;14.20;99.90;;;;;;5062175;28;20391;-67
2022/09/12 06:09:07;;;;;;;11.60;10.07;;;14.20;99.90;;;;;;5060150;28;20391;-67
2022/09/12 06:11:36;;;;;;;10.20;9.10;;;14.20;99.90;;;;;;5062663;28;20681;-68
2022/09/12 06:14:02;;;;;;;10.23;8.90;;;14.20;99.90;;;;;;5062128;28;20482;-67
2022/09/12 06:16:31;;;;;;;12.20;10.70;;;14.20;99.90;;;;;;5061943;28;20671;-68
2022/09/12 06:19:01;;;;;;;13.05;11.23;;;14.20;99.90;;;;;;5076960;28;20643;-68
2022/09/12 06:21:30;;;;;;;15.20;11.20;;;14.30;99.90;;;;;;5059866;28;20486;-68
2022/09/12 06:23:57;;;;;;;15.50;12.30;;;14.20;99.90;;;;;;5058095;28;20414;-67
2022/09/12 06:26:24;;;;;;;15.88;12.52;;;14.20;99.90;;;;;;5057548;28;20790;-67
2022/09/12 06:28:51;;;;;;;17.00;11.88;;;14.10;99.90;;;;;;5058276;28;20379;-68
2022/09/12 06:31:20;;;;;;;14.77;11.07;;;14.10;99.90;;;;;;5060970;28;20771;-67
2022/09/12 06:33:48;;;;;;;12.75;10.52;;;14.10;99.90;;;;;;5058728;28;20379;-67
2022/09/12 06:36:18;;;;;;;11.68;9.40;;;14.20;99.90;;;;;;5057964;28;20583;-68
2022/09/12 06:38:50;;;;;;;12.80;9.77;;;14.20;99.90;;;;;;5058506;28;20396;-68
2022/09/12 06:41:16;;;;;;;12.55;10.00;;;14.30;99.90;;;;;;5058503;28;20396;-68
2022/09/12 06:43:42;;;;;;;10.75;8.35;;;14.20;99.90;;;;;;5076805;28;20672;-67
2022/09/12 06:46:09;;;;;;;8.83;7.93;;;14.30;99.90;;;;;;5060306;28;20388;-67
2022/09/12 06:48:35;;;;;;;9.35;7.90;;;14.30;99.90;;;;;;5063234;28;20641;-68
2022/09/12 06:51:03;;;;;;;9.05;7.40;;;14.40;99.90;;;;;;5062127;28;20915;-68
2022/09/12 06:53:32;;;;;;;7.93;7.13;;;14.40;99.90;;;;;;5058229;28;20392;-68
2022/09/12 06:56:04;;;;;;;8.85;7.30;;;14.50;99.90;;;;;;5057424;28;20683;-67
2022/09/12 06:58:30;;;;;;;6.60;6.00;;;14.60;99.90;;;;;;5057196;28;20387;-67
2022/09/12 07:01:11;;;;;;;5.95;5.25;;;14.70;99.90;;;;;;5054832;28;20592;-68
2022/09/12 07:03:38;;;;;;;8.23;6.78;;;14.70;99.90;;;;;;5055025;28;20727;-67
2022/09/12 07:06:05;;;;;;;6.05;5.55;;;14.70;99.90;;;;;;5054554;28;20384;-67
2022/09/12 07:08:31;;;;;;;6.60;5.97;;;14.70;99.90;;;;;;5052829;28;20447;-67
2022/09/12 07:11:00;;;;;;;8.00;7.30;;;14.80;99.90;;;;;;5069791;28;20380;-68
2022/09/12 07:13:26;;;;;;;9.57;8.00;;;14.80;99.90;;;;;;5057358;28;20375;-67
2022/09/12 07:15:51;;;;;;;10.05;8.23;;;14.80;99.90;;;;;;5056851;28;20640;-68
2022/09/12 07:18:17;;;;;;;9.00;8.10;;;14.60;99.90;;;;;;5055218;28;20390;-67
2022/09/12 07:20:43;;;;;;;8.30;7.47;;;14.50;99.90;;;;;;5054567;28;20387;-67
2022/09/12 07:23:10;;;;;;;8.60;7.57;;;14.60;99.90;;;;;;5053706;28;20411;-67
2022/09/12 07:25:36;;;;;;;7.20;6.60;;;14.70;99.90;;;;;;5051974;28;20511;-69
2022/09/12 07:28:02;;;;;;;7.15;6.28;;;14.80;99.90;;;;;;5056869;28;20519;-68
2022/09/12 07:30:28;;;;;;;7.82;7.03;;;14.80;99.90;;;;;;5056260;28;20668;-67
2022/09/12 07:32:53;;;;;;;8.43;7.70;;;14.90;99.90;;;;;;5055150;28;20387;-67
2022/09/12 07:35:20;;;;;;;6.20;5.70;;;15.00;99.90;;;;;;5053674;28;20391;-68
2022/09/12 07:37:46;;;;;;;5.75;5.25;;;15.10;99.90;;;;;;5051721;28;20426;-68
2022/09/12 07:40:12;;;;;;;8.90;7.15;;;15.20;99.90;;;;;;5052605;28;20514;-67
2022/09/12 07:42:38;;;;;;;7.80;7.10;;;15.30;99.90;;;;;;5051699;28;20668;-67
2022/09/12 07:45:03;;;;;;;7.82;7.07;;;15.30;99.90;;;;;;5051060;28;20651;-68
2022/09/12 07:47:29;;;;;;;5.90;5.30;;;15.30;99.90;;;;;;5053725;28;20452;-67
2022/09/12 07:49:55;;;;;;;7.18;6.55;;;15.40;99.90;;;;;;5052774;28;20604;-68
2022/09/12 07:52:21;;;;;;;6.45;5.85;;;15.50;99.90;;;;;;5052265;28;20403;-66
2022/09/12 07:54:47;;;;;;;7.30;6.28;;;15.60;99.90;;;;;;5071505;28;20399;-67
2022/09/12 07:57:14;;;;;;;6.55;5.30;;;15.60;99.90;;;;;;5054389;28;20481;-67
2022/09/12 07:59:41;;;;;;;4.70;4.20;;;15.70;99.90;;;;;;5054961;28;20430;-67
2022/09/12 08:02:13;;;;;;;4.95;4.20;;;15.70;99.90;;;;;;5054633;28;20727;-67
2022/09/12 08:04:43;;;;;;;4.70;4.30;;;15.90;99.90;;;;;;5054214;28;20419;-67
2022/09/12 08:07:09;;;;;;;5.00;4.55;;;15.90;99.90;;;;;;5054770;28;20387;-67
2022/09/12 08:09:35;;;;;;;7.80;4.45;;;16.00;99.90;;;;;;5057640;28;20451;-67
2022/09/12 08:12:03;;;;;;;8.90;6.30;;;16.10;99.90;;;;;;5058304;28;20432;-67
2022/09/12 08:14:29;;;;;;;5.10;4.60;;;16.10;99.90;;;;;;5057367;28;20383;-67
2022/09/12 08:16:55;;;;;;;5.55;4.90;;;16.20;99.90;;;;;;5057283;28;20407;-67
2022/09/12 08:19:21;;;;;;;6.22;5.30;;;16.20;99.90;;;;;;5056118;28;20375;-67
2022/09/12 08:21:48;;;;;;;5.90;5.30;;;16.30;99.90;;;;;;5053134;28;20828;-67
2022/09/12 08:24:14;;;;;;;10.13;6.53;;;16.30;99.90;;;;;;5069475;28;20399;-67
2022/09/12 08:26:40;;;;;;;6.15;5.60;;;16.30;99.90;;;;;;5051631;28;20392;-67
2022/09/12 08:29:06;;;;;;;5.22;4.72;;;16.30;99.90;;;;;;5049500;28;20396;-67
2022/09/12 08:31:35;;;;;;;5.75;5.15;;;16.40;99.90;;;;;;5049226;28;20603;-67
2022/09/12 08:34:03;;;;;;;7.20;6.18;;;16.50;99.90;;;;;;5052545;28;20934;-67
2022/09/12 08:36:30;;;;;;;7.50;5.77;;;16.60;99.90;;;;;;5051956;28;20467;-67
2022/09/12 08:38:58;;;;;;;8.27;6.10;;;16.60;99.90;;;;;;5051614;28;20714;-67
2022/09/12 08:41:33;;;;;;;8.07;5.47;;;16.60;99.90;;;;;;5051189;28;20387;-67
2022/09/12 08:44:14;;;;;;;5.80;4.70;;;16.70;99.90;;;;;;5053525;28;20514;-67
2022/09/12 08:46:40;;;;;;;9.30;5.83;;;16.80;99.90;;;;;;5051068;28;20477;-67
2022/09/12 08:49:10;;;;;;;5.10;4.60;;;16.80;99.90;;;;;;5051275;28;21002;-67
2022/09/12 08:51:38;;;;;;;4.00;3.60;;;16.80;99.90;;;;;;5054491;28;20371;-67
2022/09/12 08:54:20;;;;;;;5.80;5.25;;;17.00;99.90;;;;;;5052292;28;20714;-67
2022/09/12 08:56:47;;;;;;;3.47;3.17;;;17.00;99.90;;;;;;5054272;28;20423;-67
2022/09/12 08:59:12;;;;;;;7.50;4.45;;;17.10;99.90;;;;;;5056225;28;20880;-67
2022/09/12 09:01:44;;;;;;;6.75;3.90;;;17.10;99.90;;;;;;5056944;28;20391;-67
2022/09/12 09:04:28;;;;;;;5.00;3.60;;;17.10;99.90;;;;;;5053374;28;20494;-67
2022/09/12 09:07:13;;;;;;;6.10;3.78;;;17.20;99.90;;;;;;5056057;28;20764;-67
2022/09/12 09:10:06;;;;;;;4.57;3.90;;;17.20;99.90;;;;;;5053647;28;20610;-67
2022/09/12 09:12:53;;;;;;;4.30;3.25;;;17.30;99.90;;;;;;5054710;28;20418;-67
2022/09/12 09:15:33;;;;;;;3.58;3.28;;;17.40;99.90;;;;;;5054823;28;20497;-67
2022/09/12 09:18:37;;;;;;;2.63;2.13;;;17.50;99.90;;;;;;5053226;28;20399;-67
2022/09/12 09:21:30;;;;;;;5.45;3.95;;;17.60;99.90;;;;;;5034605;28;20536;-67
2022/09/12 09:24:10;;;;;;;5.05;3.58;;;17.60;99.90;;;;;;5055224;28;20407;-67
2022/09/12 09:26:51;;;;;;;2.50;2.30;;;17.70;99.90;;;;;;5058372;28;20544;-67
2022/09/12 09:29:19;;;;;;;4.20;2.85;;;17.70;99.90;;;;;;5058786;28;20394;-67
2022/09/12 09:31:52;;;;;;;3.93;2.97;;;17.80;99.90;;;;;;5056873;28;20372;-67
2022/09/12 09:34:20;;;;;;;3.05;2.75;;;17.80;99.90;;;;;;5055299;28;20387;-67
2022/09/12 09:37:17;;;;;;;3.23;2.57;;;17.90;99.90;;;;;;5056335;28;20473;-67
2022/09/12 09:39:58;;;;;;;1.65;1.55;;;17.90;99.90;;;;;;5057926;28;20392;-67
2022/09/12 09:42:40;;;;;;;3.70;2.80;;;18.10;99.90;;;;;;5055449;28;20634;-66
2022/09/12 09:45:19;;;;;;;2.83;2.03;;;18.20;99.90;;;;;;5057435;28;20647;-66
2022/09/12 09:47:58;;;;;;;2.63;2.43;;;18.20;99.90;;;;;;5058630;28;20491;-66
2022/09/12 09:50:24;;;;;;;4.45;2.60;;;18.30;99.90;;;;;;5056257;28;20838;-66
2022/09/12 09:52:51;;;;;;;5.63;2.63;;;18.30;99.90;;;;;;5056659;28;20403;-66
2022/09/12 09:55:23;;;;;;;1.90;1.80;;;18.30;99.90;;;;;;5056605;28;20860;-67
2022/09/12 09:57:51;;;;;;;2.15;1.70;;;18.50;99.90;;;;;;5054413;28;20788;-68
2022/09/12 10:00:26;;;;;;;1.77;1.53;;;18.50;99.90;;;;;;5057186;28;20524;-67
2022/09/12 10:03:13;;;;;;;2.95;2.33;;;18.60;99.90;;;;;;5060793;28;20418;-67
2022/09/12 10:05:49;;;;;;;4.27;2.93;;;18.60;99.90;;;;;;5064485;28;20400;-67
2022/09/12 10:08:28;;;;;;;3.22;2.47;;;18.70;99.90;;;;;;5065378;28;20874;-67
2022/09/12 10:10:55;;;;;;;2.72;2.42;;;18.70;99.90;;;;;;5065036;28;20392;-67
2022/09/12 10:13:51;;;;;;;2.20;2.00;;;18.70;99.90;;;;;;5066726;28;20544;-67
2022/09/12 10:16:21;;;;;;;2.70;1.90;;;18.80;99.90;;;;;;5064962;28;20772;-67
2022/09/12 10:18:49;;;;;;;2.53;1.60;;;18.80;99.90;;;;;;5063270;28;20699;-68
2022/09/12 10:21:32;;;;;;;2.35;2.00;;;18.90;99.90;;;;;;5063992;28;20423;-68
2022/09/12 10:24:04;;;;;;;1.42;1.33;;;19.00;99.90;;;;;;5064254;28;20819;-68
2022/09/12 10:26:36;;;;;;;2.08;1.88;;;19.10;99.90;;;;;;5062010;28;20784;-62
2022/09/12 10:29:15;;;;;;;1.95;1.80;;;19.10;99.90;;;;;;5057616;28;20383;-62
2022/09/12 10:31:50;;;;;;;1.60;1.50;;;19.00;99.90;;;;;;5055619;28;20394;-62
2022/09/12 10:34:39;;;;;;;1.63;1.30;;;19.10;99.90;;;;;;5057564;28;20691;-62
2022/09/12 10:37:21;;;;;;;3.53;1.90;;;19.20;99.90;;;;;;5074591;28;20465;-62
2022/09/12 10:39:55;;;;;;;2.05;1.60;;;19.30;99.90;;;;;;5059950;28;20418;-62
2022/09/12 10:42:41;;;;;;;1.50;1.40;;;19.30;99.90;;;;;;5077804;28;20422;-62
2022/09/12 10:45:23;;;;;;;2.10;1.73;;;19.50;99.90;;;;;;5059892;28;20564;-68
2022/09/12 10:47:50;;;;;;;2.30;1.75;;;19.70;99.90;;;;;;5052236;28;20380;-68
2022/09/12 10:50:21;;;;;;;3.30;2.08;;;19.80;99.90;;;;;;5053604;28;20387;-67
2022/09/12 10:52:47;;;;;;;1.50;1.40;;;20.00;99.90;;;;;;5053846;28;20372;-68
2022/09/12 10:55:16;;;;;;;2.30;1.60;;;20.00;99.90;;;;;;5054130;28;20453;-68
2022/09/12 10:58:20;;;;;;;1.50;1.40;;;20.10;99.90;;;;;;5053711;28;20456;-68
2022/09/12 11:00:53;;;;;;;2.53;1.93;;;20.30;99.90;;;;;;5054723;28;20978;-68
2022/09/12 11:03:34;;;;;;;3.83;2.15;;;20.20;99.90;;;;;;5049373;28;20976;-68
2022/09/12 11:06:00;;;;;;;1.95;1.50;;;20.10;99.90;;;;;;5048577;28;20396;-68
2022/09/12 11:08:39;;;;;;;3.90;1.83;;;20.20;99.90;;;;;;5049844;28;20391;-68
2022/09/12 11:11:38;;;;;;;2.55;1.60;;;20.30;99.90;;;;;;5050100;28;20414;-68
2022/09/12 11:14:03;;;;;;;1.92;1.30;;;20.40;99.90;;;;;;5028843;28;20380;-68
2022/09/12 11:17:09;;;;;;;2.28;1.65;;;20.60;99.90;;;;;;5047116;28;20726;-68
2022/09/12 11:20:12;;;;;;;1.13;1.02;;;20.60;99.90;;;;;;5050396;28;20372;-68
2022/09/12 11:22:52;;;;;;;2.88;2.00;;;20.80;99.90;;;;;;5048955;28;20473;-68
2022/09/12 11:25:49;;;;;;;3.35;2.20;;;20.60;99.90;;;;;;5048038;28;20423;-68
2022/09/12 11:28:25;;;;;;;2.90;2.05;;;20.50;99.90;;;;;;5050115;28;20451;-68
2022/09/12 11:31:12;;;;;;;1.65;1.42;;;20.50;99.90;;;;;;5053163;28;20466;-68
2022/09/12 11:33:46;;;;;;;1.90;1.50;;;20.50;99.90;;;;;;5055689;28;20380;-68
2022/09/12 11:36:32;;;;;;;1.50;1.40;;;20.60;99.90;;;;;;5052618;28;20564;-68
2022/09/12 11:39:07;;;;;;;1.25;1.15;;;20.70;99.90;;;;;;5051656;28;20459;-68
2022/09/12 11:41:42;;;;;;;1.20;0.95;;;20.80;99.90;;;;;;5058230;28;20401;-69
2022/09/12 11:44:16;;;;;;;1.10;1.00;;;21.00;99.90;;;;;;5062872;28;20891;-68
2022/09/12 11:46:43;;;;;;;1.33;1.23;;;21.10;99.90;;;;;;5060936;28;21080;-68
2022/09/12 11:49:13;;;;;;;1.02;0.90;;;21.00;99.90;;;;;;5063233;28;20499;-68
2022/09/12 11:51:46;;;;;;;2.70;1.50;;;21.20;99.90;;;;;;5063303;28;20395;-68
2022/09/12 11:54:21;;;;;;;1.37;1.17;;;21.00;99.90;;;;;;5062879;28;20510;-68
2022/09/12 11:56:52;;;;;;;1.27;0.98;;;21.00;99.90;;;;;;5062394;28;20494;-68
2022/09/12 11:59:39;;;;;;;1.40;1.30;;;21.20;99.90;;;;;;5062305;28;20437;-69
2022/09/12 12:02:11;;;;;;;0.83;0.83;;;21.30;99.90;;;;;;5063296;28;20383;-68
2022/09/12 12:04:48;;;;;;;0.77;0.77;;;21.30;99.90;;;;;;5062899;28;20411;-68
2022/09/12 12:07:14;;;;;;;3.20;1.40;;;21.50;99.90;;;;;;5066062;28;20383;-68
2022/09/12 12:09:49;;;;;;;1.45;0.93;;;21.50;99.90;;;;;;5063869;28;20426;-68
2022/09/12 12:12:23;;;;;;;2.17;1.05;;;21.60;99.90;;;;;;5062269;28;21039;-68
2022/09/12 12:14:53;;;;;;;2.38;1.63;;;21.70;99.90;;;;;;5059250;28;20671;-68
2022/09/12 12:17:22;;;;;;;1.50;1.20;;;21.40;99.90;;;;;;5057807;28;20457;-69
2022/09/12 12:19:59;;;;;;;1.00;0.80;;;21.30;99.90;;;;;;5058648;28;20788;-69
2022/09/12 12:22:25;;;;;;;1.92;1.00;;;21.70;99.90;;;;;;5055819;28;20426;-69
2022/09/12 12:25:04;;;;;;;1.70;0.90;;;22.10;99.90;;;;;;5058787;28;20438;-68
2022/09/12 12:27:53;;;;;;;1.10;1.02;;;22.40;99.90;;;;;;5058940;28;20391;-69
2022/09/12 12:30:32;;;;;;;1.13;1.00;;;22.50;99.90;;;;;;5062626;28;20490;-68
2022/09/12 12:33:11;;;;;;;1.33;1.23;;;22.40;99.90;;;;;;5063960;28;20879;-68
2022/09/12 12:36:07;;;;;;;1.98;1.40;;;22.40;99.90;;;;;;5063072;28;20403;-68
2022/09/12 12:38:38;;;;;;;1.65;1.10;;;22.30;99.90;;;;;;5064477;28;20407;-68
2022/09/12 12:41:16;;;;;;;3.20;1.80;;;22.20;99.90;;;;;;5064166;28;20388;-69
2022/09/12 12:43:47;;;;;;;1.75;1.25;;;22.50;99.90;;;;;;5065062;28;20429;-69
2022/09/12 12:46:17;;;;;;;1.92;1.00;;;22.80;99.90;;;;;;5063026;28;20376;-69
2022/09/12 12:48:59;;;;;;;1.50;1.13;;;22.80;99.90;;;;;;5063532;28;20391;-68
2022/09/12 12:51:33;;;;;;;1.60;1.20;;;22.90;99.90;;;;;;5064392;28;20790;-68
2022/09/12 12:54:01;;;;;;;1.53;1.10;;;23.00;99.90;;;;;;5063625;28;20834;-68
2022/09/12 12:56:39;;;;;;;1.55;1.00;;;22.60;99.90;;;;;;5061723;28;20409;-68
2022/09/12 12:59:21;;;;;;;2.03;1.27;;;22.30;99.90;;;;;;5064379;28;20380;-68
2022/09/12 13:01:54;;;;;;;1.73;1.20;;;22.20;99.90;;;;;;5063434;28;20394;-68
2022/09/12 13:04:27;;;;;;;1.20;1.10;;;22.20;99.90;;;;;;5062429;28;20412;-68
2022/09/12 13:07:05;;;;;;;1.55;1.10;;;22.20;99.90;;;;;;5063534;28;20452;-68
2022/09/12 13:09:38;;;;;;;1.87;1.10;;;22.40;99.90;;;;;;5062517;28;20452;-68
2022/09/12 13:12:06;;;;;;;1.20;1.10;;;22.10;99.90;;;;;;5063705;28;20390;-68